createdAt,value
2018-12-13T00:00:57.572Z,5.80
2018-12-13T00:01:57.571Z,7.50
2018-12-13T00:02:57.565Z,10.80
2018-12-13T00:03:57.561Z,10.70
2018-12-13T00:04:57.556Z,10.70
2018-12-13T00:05:57.516Z,12.00
2018-12-13T00:06:57.551Z,13.70
2018-12-13T00:07:57.511Z,16.40
2018-12-13T00:08:57.525Z,10.90
2018-12-13T00:09:57.475Z,12.90
2018-12-13T00:10:57.486Z,13.80
2018-12-13T00:11:57.481Z,13.10
2018-12-13T00:12:57.467Z,11.70
2018-12-13T00:13:57.449Z,11.10
2018-12-13T00:14:57.438Z,9.40
2018-12-13T00:15:57.435Z,9.50
2018-12-13T00:16:57.428Z,9.10
2018-12-13T00:17:57.413Z,9.70
2018-12-13T00:18:57.393Z,7.30
2018-12-13T00:19:57.374Z,8.10
2018-12-13T00:20:57.358Z,8.30
2018-12-13T00:21:57.385Z,7.50
2018-12-13T00:22:57.351Z,7.70
2018-12-13T00:23:57.328Z,7.80
2018-12-13T00:24:57.339Z,7.60
2018-12-13T00:25:57.313Z,8.90
2018-12-13T00:26:57.295Z,8.20
2018-12-13T00:27:57.305Z,7.70
2018-12-13T00:28:57.365Z,8.60
2018-12-13T00:29:57.272Z,7.60
2018-12-13T00:30:57.273Z,7.50
2018-12-13T00:31:57.241Z,6.90
2018-12-13T00:32:57.253Z,7.10
2018-12-13T00:33:57.238Z,6.50
2018-12-13T00:34:57.225Z,7.50
2018-12-13T00:35:57.204Z,7.00
2018-12-13T00:36:57.192Z,7.20
2018-12-13T00:37:57.180Z,7.80
2018-12-13T00:38:57.186Z,6.70
2018-12-13T00:39:57.166Z,6.10
2018-12-13T00:40:57.149Z,7.10
2018-12-13T00:41:57.142Z,7.20
2018-12-13T00:42:57.124Z,6.40
2018-12-13T00:43:57.119Z,5.90
2018-12-13T00:44:57.202Z,6.50
2018-12-13T00:45:57.116Z,7.10
2018-12-13T00:46:57.088Z,6.10
2018-12-13T00:47:57.078Z,6.40
2018-12-13T00:48:57.152Z,6.60
2018-12-13T00:49:57.090Z,6.70
2018-12-13T00:50:57.050Z,5.50
2018-12-13T00:51:57.029Z,7.30
2018-12-13T00:52:57.018Z,7.50
2018-12-13T00:53:57.018Z,7.80
2018-12-13T00:54:57.017Z,7.40
2018-12-13T00:55:57.026Z,8.80
2018-12-13T00:56:56.977Z,7.20
2018-12-13T00:57:56.977Z,7.90
2018-12-13T00:58:56.961Z,6.00
2018-12-13T00:59:56.967Z,6.10
2018-12-13T01:00:56.938Z,6.60
2018-12-13T01:01:57.005Z,5.90
2018-12-13T01:02:56.932Z,6.80
2018-12-13T01:03:56.902Z,6.30
2018-12-13T01:04:56.917Z,7.30
2018-12-13T01:05:56.910Z,6.80
2018-12-13T01:06:56.886Z,6.80
2018-12-13T01:07:56.882Z,6.20
2018-12-13T01:08:56.851Z,5.90
2018-12-13T01:09:56.853Z,7.00
2018-12-13T01:10:56.842Z,5.60
2018-12-13T01:11:56.824Z,7.10
2018-12-13T01:12:56.807Z,5.70
2018-12-13T01:13:56.798Z,6.10
2018-12-13T01:14:56.782Z,5.20
2018-12-13T01:15:56.835Z,7.10
2018-12-13T01:16:56.774Z,6.00
2018-12-13T01:17:56.787Z,6.50
2018-12-13T01:18:56.765Z,6.50
2018-12-13T01:19:56.760Z,6.30
2018-12-13T01:20:56.725Z,6.70
2018-12-13T01:21:56.716Z,5.80
2018-12-13T01:22:56.700Z,5.80
2018-12-13T01:23:56.688Z,6.80
2018-12-13T01:24:56.683Z,6.50
2018-12-13T01:25:56.703Z,6.90
2018-12-13T01:26:56.698Z,5.90
2018-12-13T01:27:56.645Z,5.70
2018-12-13T01:28:56.650Z,6.10
2018-12-13T01:29:56.632Z,5.90
2018-12-13T01:30:56.659Z,5.70
2018-12-13T01:31:56.626Z,5.60
2018-12-13T01:32:56.597Z,6.30
2018-12-13T01:33:56.586Z,7.60
2018-12-13T01:34:56.584Z,6.30
2018-12-13T01:35:56.575Z,6.80
2018-12-13T01:36:56.575Z,6.80
2018-12-13T01:37:56.553Z,5.20
2018-12-13T01:38:56.537Z,5.10
2018-12-13T01:39:56.529Z,5.40
2018-12-13T01:40:56.532Z,5.90
2018-12-13T01:41:56.515Z,5.20
2018-12-13T01:42:56.490Z,5.10
2018-12-13T01:43:56.481Z,5.40
2018-12-13T01:44:56.470Z,5.80
2018-12-13T01:45:56.471Z,5.60
2018-12-13T01:46:56.447Z,5.10
2018-12-13T01:47:56.433Z,5.80
2018-12-13T01:48:56.423Z,6.50
2018-12-13T01:49:56.414Z,5.90
2018-12-13T01:50:56.408Z,5.90
2018-12-13T01:51:56.405Z,4.80
2018-12-13T01:52:56.381Z,6.60
2018-12-13T01:53:56.392Z,4.90
2018-12-13T01:54:56.355Z,5.50
2018-12-13T01:55:56.419Z,6.00
2018-12-13T01:56:56.362Z,5.90
2018-12-13T01:57:56.332Z,6.70
2018-12-13T01:58:56.327Z,5.60
2018-12-13T01:59:56.340Z,5.30
2018-12-13T02:00:56.294Z,5.40
2018-12-13T02:01:56.286Z,5.90
2018-12-13T02:02:56.282Z,5.90
2018-12-13T02:03:56.282Z,5.60
2018-12-13T02:04:56.279Z,5.90
2018-12-13T02:05:56.247Z,5.50
2018-12-13T02:06:58.845Z,6.20
2018-12-13T02:07:56.215Z,5.10
2018-12-13T02:08:56.212Z,4.80
2018-12-13T02:09:56.207Z,6.40
2018-12-13T02:10:56.210Z,5.50
2018-12-13T02:11:56.181Z,5.60
2018-12-13T02:12:56.170Z,6.40
2018-12-13T02:13:56.156Z,6.00
2018-12-13T02:14:56.149Z,6.80
2018-12-13T02:15:56.151Z,7.10
2018-12-13T02:16:56.208Z,5.70
2018-12-13T02:17:56.118Z,5.90
2018-12-13T02:18:56.104Z,5.90
2018-12-13T02:19:56.099Z,6.10
2018-12-13T02:20:56.097Z,6.40
2018-12-13T02:21:56.082Z,6.60
2018-12-13T02:22:56.093Z,5.90
2018-12-13T02:23:56.053Z,4.10
2018-12-13T02:24:56.043Z,5.70
2018-12-13T02:25:56.029Z,5.50
2018-12-13T02:26:56.041Z,5.70
2018-12-13T02:27:56.019Z,5.10
2018-12-13T02:28:56.008Z,4.30
2018-12-13T02:29:55.991Z,5.40
2018-12-13T02:30:55.988Z,7.10
2018-12-13T02:31:55.966Z,4.90
2018-12-13T02:32:55.953Z,5.90
2018-12-13T02:33:55.963Z,5.00
2018-12-13T02:34:55.940Z,5.40
2018-12-13T02:35:55.931Z,5.20
2018-12-13T02:36:55.943Z,5.80
2018-12-13T02:37:55.904Z,5.70
2018-12-13T02:38:55.901Z,5.30
2018-12-13T02:39:55.880Z,5.40
2018-12-13T02:40:55.876Z,5.90
2018-12-13T02:41:55.867Z,5.50
2018-12-13T02:42:55.856Z,5.20
2018-12-13T02:43:55.888Z,5.50
2018-12-13T02:44:55.861Z,4.60
2018-12-13T02:45:55.835Z,5.00
2018-12-13T02:46:55.877Z,5.90
2018-12-13T02:47:55.813Z,6.50
2018-12-13T02:48:55.805Z,5.40
2018-12-13T02:49:55.808Z,7.10
2018-12-13T02:50:55.785Z,5.50
2018-12-13T02:51:55.759Z,5.50
2018-12-13T02:52:55.747Z,6.20
2018-12-13T02:53:55.749Z,5.50
2018-12-13T02:54:55.746Z,4.90
2018-12-13T02:55:55.726Z,5.40
2018-12-13T02:56:55.719Z,5.80
2018-12-13T02:57:55.709Z,5.70
2018-12-13T02:58:55.695Z,5.60
2018-12-13T02:59:55.674Z,6.10
2018-12-13T03:00:55.665Z,6.30
2018-12-13T03:01:55.654Z,6.60
2018-12-13T03:02:55.647Z,5.80
2018-12-13T03:03:55.636Z,4.80
2018-12-13T03:04:55.630Z,4.50
2018-12-13T03:05:55.612Z,5.00
2018-12-13T03:06:55.606Z,5.70
2018-12-13T03:07:55.598Z,5.80
2018-12-13T03:08:55.594Z,5.20
2018-12-13T03:09:55.591Z,4.90
2018-12-13T03:10:55.562Z,4.50
2018-12-13T03:11:55.543Z,5.90
2018-12-13T03:12:55.540Z,5.00
2018-12-13T03:13:55.528Z,6.10
2018-12-13T03:14:55.518Z,5.70
2018-12-13T03:15:55.521Z,5.20
2018-12-13T03:16:55.497Z,6.40
2018-12-13T03:17:55.492Z,5.20
2018-12-13T03:18:55.468Z,6.00
2018-12-13T03:19:55.494Z,6.90
2018-12-13T03:20:55.474Z,5.90
2018-12-13T03:21:55.441Z,5.70
2018-12-13T03:22:55.427Z,5.70
2018-12-13T03:23:55.416Z,5.70
2018-12-13T03:24:55.412Z,4.90
2018-12-13T03:25:55.417Z,4.80
2018-12-13T03:26:55.393Z,5.70
2018-12-13T03:27:55.392Z,5.40
2018-12-13T03:28:55.365Z,5.20
2018-12-13T03:29:55.392Z,6.90
2018-12-13T03:30:55.354Z,5.20
2018-12-13T03:31:55.337Z,5.50
2018-12-13T03:32:55.384Z,5.00
2018-12-13T03:33:55.345Z,5.50
2018-12-13T03:34:55.330Z,5.00
2018-12-13T03:35:55.316Z,6.90
2018-12-13T03:36:55.282Z,5.20
2018-12-13T03:37:55.279Z,5.50
2018-12-13T03:38:55.271Z,5.50
2018-12-13T03:39:55.269Z,5.60
2018-12-13T03:40:55.257Z,5.00
2018-12-13T03:41:55.241Z,6.20
2018-12-13T03:42:55.212Z,4.80
2018-12-13T03:43:55.224Z,5.10
2018-12-13T03:44:55.194Z,5.10
2018-12-13T03:45:55.190Z,5.60
2018-12-13T03:46:55.197Z,5.60
2018-12-13T03:47:55.166Z,6.60
2018-12-13T03:48:55.161Z,5.20
2018-12-13T03:49:55.138Z,6.00
2018-12-13T03:50:55.129Z,5.40
2018-12-13T03:51:55.124Z,5.80
2018-12-13T03:52:55.124Z,5.90
2018-12-13T03:53:55.134Z,4.80
2018-12-13T03:54:55.090Z,5.20
2018-12-13T03:55:55.077Z,5.80
2018-12-13T03:56:55.091Z,4.40
2018-12-13T03:57:55.063Z,6.00
2018-12-13T03:58:55.055Z,5.20
2018-12-13T03:59:55.061Z,5.00
2018-12-13T04:00:55.031Z,6.10
2018-12-13T04:01:55.031Z,6.10
2018-12-13T04:02:55.002Z,4.70
2018-12-13T04:03:54.999Z,5.70
2018-12-13T04:04:54.990Z,5.00
2018-12-13T04:05:54.995Z,6.30
2018-12-13T04:06:55.018Z,6.00
2018-12-13T04:07:54.964Z,5.30
2018-12-13T04:08:54.941Z,5.10
2018-12-13T04:09:54.946Z,4.80
2018-12-13T04:10:54.930Z,6.60
2018-12-13T04:11:54.929Z,5.70
2018-12-13T04:12:54.938Z,5.60
2018-12-13T04:13:54.889Z,5.10
2018-12-13T04:14:54.881Z,5.60
2018-12-13T04:15:54.871Z,4.90
2018-12-13T04:16:54.859Z,5.50
2018-12-13T04:17:54.852Z,5.10
2018-12-13T04:18:54.857Z,4.80
2018-12-13T04:19:54.836Z,4.90
2018-12-13T04:20:54.825Z,4.90
2018-12-13T04:21:54.807Z,5.30
2018-12-13T04:22:54.812Z,5.20
2018-12-13T04:23:54.807Z,5.90
2018-12-13T04:24:54.781Z,5.10
2018-12-13T04:25:54.765Z,5.40
2018-12-13T04:26:54.756Z,5.30
2018-12-13T04:27:54.748Z,4.30
2018-12-13T04:28:54.768Z,5.90
2018-12-13T04:29:54.769Z,6.00
2018-12-13T04:30:54.730Z,4.50
2018-12-13T04:31:54.722Z,5.00
2018-12-13T04:32:54.724Z,6.30
2018-12-13T04:33:54.689Z,5.70
2018-12-13T04:34:54.674Z,5.40
2018-12-13T04:35:54.665Z,5.30
2018-12-13T04:36:54.666Z,4.70
2018-12-13T04:37:54.647Z,5.20
2018-12-13T04:38:54.673Z,6.20
2018-12-13T04:39:54.646Z,5.80
2018-12-13T04:40:54.678Z,5.30
2018-12-13T04:41:54.616Z,5.60
2018-12-13T04:42:54.598Z,5.10
2018-12-13T04:43:54.594Z,5.10
2018-12-13T04:44:54.581Z,6.20
2018-12-13T04:45:54.559Z,5.80
2018-12-13T04:46:54.559Z,4.90
2018-12-13T04:47:54.549Z,5.10
2018-12-13T04:48:54.539Z,5.50
2018-12-13T04:49:54.565Z,5.80
2018-12-13T04:50:54.504Z,5.50
2018-12-13T04:51:54.505Z,6.40
2018-12-13T04:52:54.493Z,4.70
2018-12-13T04:53:54.475Z,6.10
2018-12-13T04:54:54.482Z,6.30
2018-12-13T04:55:54.473Z,6.10
2018-12-13T04:56:54.453Z,5.00
2018-12-13T04:57:54.436Z,4.70
2018-12-13T04:58:54.443Z,4.60
2018-12-13T04:59:54.417Z,5.10
2018-12-13T05:00:54.412Z,5.80
2018-12-13T05:01:54.391Z,6.20
2018-12-13T05:02:54.389Z,5.00
2018-12-13T05:03:54.376Z,6.80
2018-12-13T05:04:54.386Z,4.30
2018-12-13T05:05:54.370Z,6.10
2018-12-13T05:06:54.356Z,5.20
2018-12-13T05:07:54.341Z,4.90
2018-12-13T05:08:54.321Z,4.70
2018-12-13T05:09:54.312Z,4.90
2018-12-13T05:10:54.297Z,5.70
2018-12-13T05:11:54.308Z,5.40
2018-12-13T05:12:54.280Z,4.80
2018-12-13T05:13:54.277Z,5.20
2018-12-13T05:14:54.256Z,5.30
2018-12-13T05:15:54.248Z,5.00
2018-12-13T05:16:54.249Z,5.00
2018-12-13T05:17:54.268Z,5.40
2018-12-13T05:18:54.227Z,4.80
2018-12-13T05:19:54.213Z,4.50
2018-12-13T05:20:54.195Z,5.20
2018-12-13T05:21:54.191Z,4.20
2018-12-13T05:22:54.167Z,6.00
2018-12-13T05:23:54.155Z,6.10
2018-12-13T05:24:54.162Z,4.90
2018-12-13T05:25:54.172Z,4.70
2018-12-13T05:26:54.141Z,7.30
2018-12-13T05:27:54.119Z,5.90
2018-12-13T05:28:54.107Z,4.80
2018-12-13T05:29:54.098Z,4.60
2018-12-13T05:30:54.113Z,4.60
2018-12-13T05:31:54.080Z,5.30
2018-12-13T05:32:54.067Z,4.40
2018-12-13T05:33:54.056Z,5.30
2018-12-13T05:34:54.042Z,9.40
2018-12-13T05:35:54.061Z,5.30
2018-12-13T05:36:54.023Z,5.40
2018-12-13T05:37:54.013Z,5.10
2018-12-13T05:38:54.017Z,4.90
2018-12-13T05:39:53.999Z,5.30
2018-12-13T05:40:53.983Z,5.30
2018-12-13T05:41:53.987Z,5.30
2018-12-13T05:42:53.991Z,4.90
2018-12-13T05:43:53.965Z,5.50
2018-12-13T05:44:53.942Z,5.00
2018-12-13T05:45:53.935Z,5.30
2018-12-13T05:46:53.924Z,6.00
2018-12-13T05:47:53.917Z,5.40
2018-12-13T05:48:54.618Z,5.80
2018-12-13T05:49:53.887Z,6.10
2018-12-13T05:50:53.884Z,5.70
2018-12-13T05:51:53.878Z,4.40
2018-12-13T05:52:53.875Z,4.90
2018-12-13T05:53:53.842Z,8.40
2018-12-13T05:54:53.829Z,6.00
2018-12-13T05:55:53.817Z,5.80
2018-12-13T05:56:53.823Z,6.10
2018-12-13T05:57:53.805Z,5.90
2018-12-13T05:58:53.820Z,4.80
2018-12-13T05:59:53.792Z,5.20
2018-12-13T06:00:53.786Z,5.70
2018-12-13T06:01:53.769Z,4.40
2018-12-13T06:02:53.752Z,5.80
2018-12-13T06:03:53.751Z,4.70
2018-12-13T06:04:53.738Z,6.20
2018-12-13T06:05:53.739Z,5.90
2018-12-13T06:06:53.725Z,5.30
2018-12-13T06:07:54.993Z,6.00
2018-12-13T06:08:53.686Z,5.90
2018-12-13T06:09:53.672Z,6.70
2018-12-13T06:10:53.668Z,5.50
2018-12-13T06:11:53.698Z,5.40
2018-12-13T06:12:53.647Z,5.90
2018-12-13T06:13:53.637Z,5.60
2018-12-13T06:14:53.615Z,5.40
2018-12-13T06:15:53.614Z,5.80
2018-12-13T06:16:53.600Z,5.80
2018-12-13T06:17:53.609Z,5.70
2018-12-13T06:18:53.572Z,5.30
2018-12-13T06:19:53.562Z,7.60
2018-12-13T06:20:53.573Z,5.40
2018-12-13T06:21:53.563Z,6.30
2018-12-13T06:22:53.557Z,6.50
2018-12-13T06:23:53.534Z,5.90
2018-12-13T06:24:53.516Z,7.10
2018-12-13T06:25:53.507Z,9.90
2018-12-13T06:26:53.490Z,9.80
2018-12-13T06:27:53.484Z,6.30
2018-12-13T06:28:53.487Z,5.90
2018-12-13T06:29:58.820Z,6.80
2018-12-13T06:30:54.458Z,6.50
2018-12-13T06:31:53.435Z,4.70
2018-12-13T06:32:53.443Z,5.80
2018-12-13T06:33:53.421Z,6.20
2018-12-13T06:34:53.419Z,6.30
2018-12-13T06:35:53.423Z,5.20
2018-12-13T06:36:53.403Z,6.00
2018-12-13T06:37:53.380Z,5.60
2018-12-13T06:38:53.392Z,5.60
2018-12-13T06:39:53.367Z,5.70
2018-12-13T06:40:53.352Z,5.00
2018-12-13T06:41:53.339Z,8.50
2018-12-13T06:42:53.326Z,5.80
2018-12-13T06:43:53.338Z,6.00
2018-12-13T06:44:53.334Z,7.60
2018-12-13T06:45:53.302Z,6.50
2018-12-13T06:46:53.302Z,7.20
2018-12-13T06:47:53.283Z,7.20
2018-12-13T06:48:53.273Z,7.70
2018-12-13T06:49:53.258Z,7.60
2018-12-13T06:50:53.234Z,8.10
2018-12-13T06:51:53.227Z,7.40
2018-12-13T06:52:53.217Z,6.80
2018-12-13T06:53:53.207Z,6.90
2018-12-13T06:54:53.231Z,6.80
2018-12-13T06:55:53.189Z,6.80
2018-12-13T06:56:53.177Z,7.70
2018-12-13T06:57:53.163Z,7.70
2018-12-13T06:58:53.148Z,7.60
2018-12-13T06:59:53.139Z,7.10
2018-12-13T07:00:53.151Z,6.60
2018-12-13T07:01:53.137Z,7.10
2018-12-13T07:02:53.121Z,7.10
2018-12-13T07:03:53.110Z,8.20
2018-12-13T07:04:53.096Z,8.20
2018-12-13T07:05:53.078Z,6.40
2018-12-13T07:06:53.086Z,7.70
2018-12-13T07:07:53.083Z,6.60
2018-12-13T07:08:53.068Z,6.70
2018-12-13T07:09:53.044Z,7.00
2018-12-13T07:10:53.025Z,7.60
2018-12-13T07:11:53.032Z,7.50
2018-12-13T07:12:53.009Z,7.20
2018-12-13T07:13:52.997Z,6.90
2018-12-13T07:14:52.995Z,6.60
2018-12-13T07:15:52.987Z,6.10
2018-12-13T07:16:52.967Z,8.50
2018-12-13T07:17:52.976Z,7.80
2018-12-13T07:18:52.936Z,8.30
2018-12-13T07:19:52.950Z,7.20
2018-12-13T07:20:52.920Z,7.40
2018-12-13T07:21:52.926Z,7.60
2018-12-13T07:22:52.904Z,7.20
2018-12-13T07:23:52.887Z,7.10
2018-12-13T07:24:52.878Z,7.10
2018-12-13T07:25:52.867Z,6.80
2018-12-13T07:26:52.870Z,6.70
2018-12-13T07:27:52.856Z,8.40
2018-12-13T07:28:52.834Z,7.80
2018-12-13T07:29:52.845Z,7.60
2018-12-13T07:30:52.829Z,8.00
2018-12-13T07:31:52.807Z,7.70
2018-12-13T07:32:52.788Z,7.20
2018-12-13T07:33:52.800Z,8.10
2018-12-13T07:34:52.776Z,6.80
2018-12-13T07:35:52.759Z,7.50
2018-12-13T07:36:52.750Z,7.00
2018-12-13T07:37:52.753Z,8.30
2018-12-13T07:38:52.741Z,8.10
2018-12-13T07:39:52.742Z,8.30
2018-12-13T07:40:52.730Z,7.80
2018-12-13T07:41:52.691Z,7.60
2018-12-13T07:42:52.685Z,7.30
2018-12-13T07:43:52.668Z,7.60
2018-12-13T07:44:52.676Z,9.30
2018-12-13T07:45:52.667Z,8.40
2018-12-13T07:46:52.705Z,7.20
2018-12-13T07:47:52.648Z,8.00
2018-12-13T07:48:56.409Z,7.40
2018-12-13T07:49:52.614Z,7.50
2018-12-13T07:50:52.608Z,8.00
2018-12-13T07:51:52.592Z,7.40
2018-12-13T07:52:52.578Z,7.60
2018-12-13T07:53:52.594Z,8.90
2018-12-13T07:54:52.567Z,8.20
2018-12-13T07:55:52.556Z,9.60
2018-12-13T07:56:52.538Z,9.90
2018-12-13T07:57:52.524Z,9.30
2018-12-13T07:58:52.516Z,9.60
2018-12-13T07:59:52.504Z,9.70
2018-12-13T08:00:52.510Z,9.20
2018-12-13T08:01:52.493Z,8.90
2018-12-13T08:02:52.465Z,8.70
2018-12-13T08:03:52.463Z,9.10
2018-12-13T08:04:52.447Z,8.40
2018-12-13T08:05:52.440Z,12.00
2018-12-13T08:06:52.446Z,9.50
2018-12-13T08:07:52.417Z,9.50
2018-12-13T08:08:52.403Z,7.70
2018-12-13T08:09:52.417Z,9.20
2018-12-13T08:10:52.387Z,11.10
2018-12-13T08:11:52.377Z,9.10
2018-12-13T08:12:52.385Z,9.50
2018-12-13T08:13:52.357Z,8.50
2018-12-13T08:14:52.345Z,8.90
2018-12-13T08:15:52.326Z,9.00
2018-12-13T08:16:52.357Z,8.00
2018-12-13T08:17:52.310Z,8.50
2018-12-13T08:18:52.305Z,10.00
2018-12-13T08:19:52.291Z,9.20
2018-12-13T08:20:52.279Z,10.10
2018-12-13T08:21:52.263Z,8.50
2018-12-13T08:22:52.271Z,9.70
2018-12-13T08:23:52.264Z,10.30
2018-12-13T08:24:52.240Z,10.80
2018-12-13T08:25:52.228Z,11.40
2018-12-13T08:26:52.230Z,9.90
2018-12-13T08:27:52.210Z,8.60
2018-12-13T08:28:52.189Z,9.20
2018-12-13T08:29:52.187Z,8.80
2018-12-13T08:30:52.178Z,8.60
2018-12-13T08:31:52.169Z,10.10
2018-12-13T08:32:52.181Z,9.20
2018-12-13T08:33:52.139Z,8.90
2018-12-13T08:34:52.135Z,9.10
2018-12-13T08:35:52.114Z,8.20
2018-12-13T08:36:52.113Z,9.20
2018-12-13T08:37:52.117Z,9.80
2018-12-13T08:38:52.108Z,9.00
2018-12-13T08:39:52.093Z,8.60
2018-12-13T08:40:52.083Z,9.00
2018-12-13T08:41:52.063Z,7.90
2018-12-13T08:42:52.063Z,10.50
2018-12-13T08:43:52.047Z,8.70
2018-12-13T08:44:52.035Z,9.50
2018-12-13T08:45:52.012Z,8.70
2018-12-13T08:46:51.999Z,9.00
2018-12-13T08:47:51.994Z,9.20
2018-12-13T08:48:51.980Z,9.50
2018-12-13T08:49:52.014Z,10.80
2018-12-13T08:50:51.968Z,11.60
2018-12-13T08:51:51.972Z,8.90
2018-12-13T08:52:51.945Z,9.60
2018-12-13T08:53:51.928Z,8.30
2018-12-13T08:54:51.931Z,8.30
2018-12-13T08:55:51.915Z,9.10
2018-12-13T08:56:51.903Z,7.90
2018-12-13T08:57:51.888Z,7.90
2018-12-13T08:58:51.919Z,8.40
2018-12-13T08:59:51.873Z,8.60
2018-12-13T09:00:51.861Z,7.60
2018-12-13T09:01:52.825Z,9.80
2018-12-13T09:02:51.838Z,7.60
2018-12-13T09:03:51.878Z,7.50
2018-12-13T09:04:51.853Z,7.00
2018-12-13T09:05:51.869Z,8.20
2018-12-13T09:06:51.813Z,7.20
2018-12-13T09:07:51.781Z,8.80
2018-12-13T09:08:51.761Z,7.40
2018-12-13T09:09:51.768Z,8.70
2018-12-13T09:10:51.755Z,8.60
2018-12-13T09:11:51.733Z,8.20
2018-12-13T09:12:51.757Z,7.20
2018-12-13T09:13:51.744Z,8.10
2018-12-13T09:14:51.718Z,8.90
2018-12-13T09:15:51.690Z,6.90
2018-12-13T09:16:51.704Z,7.70
2018-12-13T09:17:51.663Z,7.80
2018-12-13T09:18:51.679Z,7.00
2018-12-13T09:19:51.657Z,8.60
2018-12-13T09:20:51.633Z,7.60
2018-12-13T09:21:51.635Z,7.90
2018-12-13T09:22:51.659Z,7.10
2018-12-13T09:23:51.620Z,6.40
2018-12-13T09:24:51.615Z,7.50
2018-12-13T09:25:51.612Z,8.40
2018-12-13T09:26:51.574Z,8.10
2018-12-13T09:27:51.578Z,8.30
2018-12-13T09:28:51.561Z,6.70
2018-12-13T09:29:51.540Z,7.60
2018-12-13T09:30:51.561Z,8.70
2018-12-13T09:31:51.517Z,7.40
2018-12-13T09:32:51.508Z,8.10
2018-12-13T09:33:51.531Z,7.30
2018-12-13T09:34:51.499Z,8.30
2018-12-13T09:35:51.509Z,10.20
2018-12-13T09:36:51.490Z,6.80
2018-12-13T09:37:51.455Z,8.10
2018-12-13T09:38:51.478Z,7.30
2018-12-13T09:39:51.507Z,7.30
2018-12-13T09:40:51.435Z,7.60
2018-12-13T09:41:51.472Z,7.60
2018-12-13T09:42:51.407Z,9.00
2018-12-13T09:43:51.392Z,7.90
2018-12-13T09:44:51.388Z,7.60
2018-12-13T09:45:51.380Z,8.00
2018-12-13T09:46:51.361Z,8.80
2018-12-13T09:47:51.396Z,6.80
2018-12-13T09:48:51.349Z,8.60
2018-12-13T09:49:51.331Z,7.40
2018-12-13T09:50:51.334Z,8.30
2018-12-13T09:51:51.313Z,8.30
2018-12-13T09:52:51.294Z,6.80
2018-12-13T09:53:51.286Z,8.20
2018-12-13T09:54:51.298Z,6.90
2018-12-13T09:55:51.270Z,8.20
2018-12-13T09:56:51.265Z,6.90
2018-12-13T09:57:51.242Z,7.20
2018-12-13T09:58:51.250Z,7.90
2018-12-13T09:59:51.226Z,8.30
2018-12-13T10:00:51.217Z,7.70
2018-12-13T10:01:51.213Z,8.30
2018-12-13T10:02:51.203Z,7.00
2018-12-13T10:03:51.186Z,8.10
2018-12-13T10:04:51.168Z,8.20
2018-12-13T10:05:51.160Z,7.20
2018-12-13T10:06:51.163Z,7.50
2018-12-13T10:07:51.137Z,6.90
2018-12-13T10:08:51.157Z,6.30
2018-12-13T10:09:51.119Z,7.10
2018-12-13T10:10:51.139Z,8.50
2018-12-13T10:11:51.187Z,8.10
2018-12-13T10:12:51.072Z,7.80
2018-12-13T10:13:51.072Z,6.90
2018-12-13T10:14:51.061Z,8.90
2018-12-13T10:15:51.044Z,8.00
2018-12-13T10:16:51.030Z,8.60
2018-12-13T10:17:51.042Z,7.40
2018-12-13T10:18:51.040Z,7.10
2018-12-13T10:19:51.007Z,6.40
2018-12-13T10:20:50.999Z,8.00
2018-12-13T10:21:50.996Z,9.40
2018-12-13T10:22:50.970Z,6.40
2018-12-13T10:23:50.973Z,7.80
2018-12-13T10:24:50.956Z,8.00
2018-12-13T10:25:50.940Z,6.60
2018-12-13T10:26:50.924Z,8.60
2018-12-13T10:27:50.922Z,6.90
2018-12-13T10:28:51.023Z,7.00
2018-12-13T10:29:50.922Z,7.50
2018-12-13T10:30:50.882Z,7.80
2018-12-13T10:31:50.882Z,6.60
2018-12-13T10:32:50.868Z,8.10
2018-12-13T10:33:50.854Z,7.50
2018-12-13T10:34:50.856Z,7.60
2018-12-13T10:35:50.855Z,7.50
2018-12-13T10:36:50.816Z,8.10
2018-12-13T10:37:50.823Z,7.70
2018-12-13T10:38:53.188Z,8.50
2018-12-13T10:39:50.786Z,7.60
2018-12-13T10:40:50.775Z,8.70
2018-12-13T10:41:50.835Z,9.20
2018-12-13T10:42:50.751Z,9.20
2018-12-13T10:43:50.758Z,7.20
2018-12-13T10:44:50.749Z,7.60
2018-12-13T10:45:50.754Z,9.30
2018-12-13T10:46:50.715Z,8.40
2018-12-13T10:47:50.695Z,8.70
2018-12-13T10:48:50.692Z,8.30
2018-12-13T10:49:50.693Z,9.30
2018-12-13T10:50:50.668Z,9.20
2018-12-13T10:51:50.656Z,8.50
2018-12-13T10:52:50.656Z,8.30
2018-12-13T10:53:50.665Z,8.50
2018-12-13T10:54:50.623Z,9.40
2018-12-13T10:55:50.641Z,7.90
2018-12-13T10:56:50.649Z,9.40
2018-12-13T10:57:50.612Z,7.10
2018-12-13T10:58:50.581Z,8.10
2018-12-13T10:59:50.592Z,7.80
2018-12-13T11:00:50.572Z,8.20
2018-12-13T11:01:50.552Z,11.10
2018-12-13T11:02:50.548Z,8.80
2018-12-13T11:03:50.546Z,9.30
2018-12-13T11:04:50.518Z,9.20
2018-12-13T11:05:50.508Z,8.40
2018-12-13T11:06:50.511Z,10.30
2018-12-13T11:07:50.503Z,9.50
2018-12-13T11:08:50.471Z,9.80
2018-12-13T11:09:50.486Z,9.20
2018-12-13T11:10:50.452Z,9.70
2018-12-13T11:11:50.481Z,8.70
2018-12-13T11:12:50.441Z,8.50
2018-12-13T11:13:50.414Z,10.00
2018-12-13T11:14:50.423Z,9.50
2018-12-13T11:15:50.402Z,10.20
2018-12-13T11:16:50.450Z,9.50
2018-12-13T11:17:50.411Z,9.90
2018-12-13T11:18:50.394Z,10.40
2018-12-13T11:19:50.429Z,9.80
2018-12-13T11:20:50.357Z,9.90
2018-12-13T11:21:50.341Z,10.00
2018-12-13T11:22:50.330Z,9.60
2018-12-13T11:23:50.324Z,12.00
2018-12-13T11:24:50.306Z,9.60
2018-12-13T11:25:50.297Z,8.00
2018-12-13T11:26:50.340Z,9.60
2018-12-13T11:27:50.266Z,9.70
2018-12-13T11:28:50.618Z,9.00
2018-12-13T11:29:50.278Z,9.10
2018-12-13T11:30:50.260Z,8.70
2018-12-13T11:31:50.231Z,9.40
2018-12-13T11:32:50.219Z,8.00
2018-12-13T11:33:50.209Z,10.00
2018-12-13T11:34:50.223Z,9.10
2018-12-13T11:35:50.186Z,9.10
2018-12-13T11:36:50.198Z,10.60
2018-12-13T11:37:50.159Z,8.80
2018-12-13T11:38:50.151Z,8.10
2018-12-13T11:39:50.157Z,8.40
2018-12-13T11:40:50.126Z,9.00
2018-12-13T11:41:50.135Z,9.50
2018-12-13T11:42:50.174Z,9.60
2018-12-13T11:43:50.106Z,10.10
2018-12-13T11:44:50.094Z,9.00
2018-12-13T11:45:50.091Z,9.80
2018-12-13T11:46:50.070Z,9.90
2018-12-13T11:47:50.051Z,9.20
2018-12-13T11:48:50.059Z,8.60
2018-12-13T11:49:50.063Z,9.30
2018-12-13T11:50:50.034Z,9.80
2018-12-13T11:51:50.009Z,8.10
2018-12-13T11:52:50.005Z,10.10
2018-12-13T11:53:50.031Z,7.80
2018-12-13T11:54:49.989Z,8.60
2018-12-13T11:55:49.977Z,9.00
2018-12-13T11:56:49.974Z,8.90
2018-12-13T11:57:49.943Z,10.00
2018-12-13T11:58:49.947Z,8.60
2018-12-13T11:59:49.924Z,10.10
2018-12-13T12:00:49.923Z,8.40
2018-12-13T12:01:49.908Z,9.30
2018-12-13T12:02:49.912Z,8.00
2018-12-13T12:03:49.890Z,9.40
2018-12-13T12:04:49.879Z,9.00
2018-12-13T12:05:49.878Z,9.40
2018-12-13T12:06:49.858Z,9.60
2018-12-13T12:07:49.853Z,9.20
2018-12-13T12:08:49.838Z,9.80
2018-12-13T12:09:49.817Z,10.90
2018-12-13T12:10:49.834Z,9.70
2018-12-13T12:11:49.817Z,8.70
2018-12-13T12:12:49.812Z,8.50
2018-12-13T12:13:49.898Z,10.30
2018-12-13T12:14:49.782Z,10.70
2018-12-13T12:15:49.779Z,9.50
2018-12-13T12:16:49.777Z,8.00
2018-12-13T12:17:49.738Z,8.80
2018-12-13T12:18:49.730Z,8.80
2018-12-13T12:19:49.741Z,11.30
2018-12-13T12:20:49.712Z,8.50
2018-12-13T12:21:49.710Z,10.90
2018-12-13T12:22:49.688Z,8.50
2018-12-13T12:23:49.719Z,10.80
2018-12-13T12:24:49.705Z,10.20
2018-12-13T12:25:49.660Z,9.90
2018-12-13T12:26:49.652Z,11.10
2018-12-13T12:27:49.639Z,8.70
2018-12-13T12:28:49.636Z,7.40
2018-12-13T12:29:49.613Z,8.40
2018-12-13T12:30:49.621Z,9.30
2018-12-13T12:31:49.587Z,8.60
2018-12-13T12:32:49.573Z,10.80
2018-12-13T12:33:49.621Z,8.30
2018-12-13T12:34:49.573Z,8.80
2018-12-13T12:35:49.562Z,7.70
2018-12-13T12:36:49.558Z,8.80
2018-12-13T12:37:49.536Z,9.30
2018-12-13T12:38:49.520Z,9.50
2018-12-13T12:39:49.514Z,8.40
2018-12-13T12:40:49.501Z,9.30
2018-12-13T12:41:49.501Z,9.50
2018-12-13T12:42:49.496Z,9.50
2018-12-13T12:43:49.464Z,9.30
2018-12-13T12:44:49.468Z,8.90
2018-12-13T12:45:49.461Z,9.70
2018-12-13T12:46:49.443Z,8.50
2018-12-13T12:47:49.449Z,9.70
2018-12-13T12:48:49.427Z,8.30
2018-12-13T12:49:49.403Z,9.70
2018-12-13T12:50:49.401Z,9.20
2018-12-13T12:51:49.383Z,9.50
2018-12-13T12:52:49.401Z,10.70
2018-12-13T12:53:49.382Z,11.20
2018-12-13T12:54:49.362Z,9.50
2018-12-13T12:55:49.343Z,10.20
2018-12-13T12:56:49.331Z,8.60
2018-12-13T12:57:49.329Z,10.10
2018-12-13T12:58:49.305Z,8.80
2018-12-13T12:59:49.312Z,9.80
2018-12-13T13:00:49.321Z,9.60
2018-12-13T13:01:49.270Z,9.70
2018-12-13T13:02:49.330Z,8.10
2018-12-13T13:03:49.250Z,9.00
2018-12-13T13:04:49.254Z,9.90
2018-12-13T13:05:49.248Z,9.50
2018-12-13T13:06:49.218Z,8.70
2018-12-13T13:07:49.207Z,9.10
2018-12-13T13:08:49.214Z,7.90
2018-12-13T13:09:49.195Z,9.40
2018-12-13T13:10:49.195Z,10.00
2018-12-13T13:11:49.217Z,9.90
2018-12-13T13:12:49.160Z,11.30
2018-12-13T13:13:49.148Z,8.50
2018-12-13T13:14:49.139Z,8.40
2018-12-13T13:15:49.186Z,8.10
2018-12-13T13:16:49.135Z,7.70